sensor_id;sensor_type;location;lat;lon;timestamp;P1;durP1;ratioP1;P2;durP2;ratioP2
1987;SDS011;12775;46.994;15.498;2023-04-25T00:00:02;4.64;;;4.24;;
1987;SDS011;12775;46.994;15.498;2023-04-25T00:02:29;5.40;;;3.50;;
1987;SDS011;12775;46.994;15.498;2023-04-25T00:04:56;4.02;;;3.44;;
1987;SDS011;12775;46.994;15.498;2023-04-25T00:07:24;4.78;;;3.64;;
1987;SDS011;12775;46.994;15.498;2023-04-25T00:09:51;3.48;;;3.18;;
1987;SDS011;12775;46.994;15.498;2023-04-25T00:12:18;4.56;;;3.30;;
1987;SDS011;12775;46.994;15.498;2023-04-25T00:14:46;3.50;;;3.20;;
1987;SDS011;12775;46.994;15.498;2023-04-25T00:17:15;3.42;;;3.02;;
1987;SDS011;12775;46.994;15.498;2023-04-25T00:19:42;3.94;;;3.30;;
1987;SDS011;12775;46.994;15.498;2023-04-25T00:22:08;4.62;;;3.46;;
1987;SDS011;12775;46.994;15.498;2023-04-25T00:24:36;3.60;;;3.30;;
1987;SDS011;12775;46.994;15.498;2023-04-25T00:27:03;7.30;;;3.16;;
1987;SDS011;12775;46.994;15.498;2023-04-25T00:29:32;3.28;;;2.98;;
1987;SDS011;12775;46.994;15.498;2023-04-25T00:31:59;3.94;;;3.64;;
1987;SDS011;12775;46.994;15.498;2023-04-25T00:34:26;4.80;;;3.64;;
1987;SDS011;12775;46.994;15.498;2023-04-25T00:36:54;3.42;;;3.12;;
1987;SDS011;12775;46.994;15.498;2023-04-25T00:39:21;3.96;;;3.66;;
1987;SDS011;12775;46.994;15.498;2023-04-25T00:41:49;6.08;;;4.32;;
1987;SDS011;12775;46.994;15.498;2023-04-25T00:44:17;3.46;;;3.22;;
1987;SDS011;12775;46.994;15.498;2023-04-25T00:46:44;3.74;;;3.42;;
1987;SDS011;12775;46.994;15.498;2023-04-25T00:49:12;3.02;;;2.72;;
1987;SDS011;12775;46.994;15.498;2023-04-25T00:51:38;5.72;;;2.80;;
1987;SDS011;12775;46.994;15.498;2023-04-25T00:54:06;4.80;;;3.14;;
1987;SDS011;12775;46.994;15.498;2023-04-25T00:56:33;4.50;;;3.96;;
1987;SDS011;12775;46.994;15.498;2023-04-25T00:59:01;3.66;;;3.46;;
1987;SDS011;12775;46.994;15.498;2023-04-25T01:01:28;4.82;;;3.60;;
1987;SDS011;12775;46.994;15.498;2023-04-25T01:03:56;3.82;;;3.52;;
1987;SDS011;12775;46.994;15.498;2023-04-25T01:06:22;4.40;;;4.00;;
1987;SDS011;12775;46.994;15.498;2023-04-25T01:08:49;3.78;;;3.48;;
1987;SDS011;12775;46.994;15.498;2023-04-25T01:11:15;5.18;;;4.74;;
1987;SDS011;12775;46.994;15.498;2023-04-25T01:13:43;4.04;;;3.66;;
1987;SDS011;12775;46.994;15.498;2023-04-25T01:16:10;3.48;;;3.22;;
1987;SDS011;12775;46.994;15.498;2023-04-25T01:18:39;3.04;;;2.84;;
1987;SDS011;12775;46.994;15.498;2023-04-25T01:21:07;4.32;;;3.92;;
1987;SDS011;12775;46.994;15.498;2023-04-25T01:23:34;4.90;;;4.50;;
1987;SDS011;12775;46.994;15.498;2023-04-25T01:26:02;5.58;;;3.58;;
1987;SDS011;12775;46.994;15.498;2023-04-25T01:28:29;3.32;;;2.98;;
1987;SDS011;12775;46.994;15.498;2023-04-25T01:30:56;4.54;;;2.92;;
1987;SDS011;12775;46.994;15.498;2023-04-25T01:33:22;2.84;;;2.64;;
1987;SDS011;12775;46.994;15.498;2023-04-25T01:35:49;4.30;;;2.72;;
1987;SDS011;12775;46.994;15.498;2023-04-25T01:38:17;3.76;;;3.02;;
1987;SDS011;12775;46.994;15.498;2023-04-25T01:40:45;3.06;;;2.70;;
1987;SDS011;12775;46.994;15.498;2023-04-25T01:43:12;4.64;;;3.44;;
1987;SDS011;12775;46.994;15.498;2023-04-25T01:45:41;3.30;;;3.02;;
1987;SDS011;12775;46.994;15.498;2023-04-25T01:48:08;2.90;;;2.70;;
1987;SDS011;12775;46.994;15.498;2023-04-25T01:50:37;3.18;;;2.88;;
1987;SDS011;12775;46.994;15.498;2023-04-25T01:53:04;2.74;;;2.46;;
1987;SDS011;12775;46.994;15.498;2023-04-25T01:55:31;2.62;;;2.42;;
1987;SDS011;12775;46.994;15.498;2023-04-25T01:57:58;2.80;;;2.60;;
1987;SDS011;12775;46.994;15.498;2023-04-25T02:00:26;2.80;;;2.60;;
1987;SDS011;12775;46.994;15.498;2023-04-25T02:02:53;3.32;;;2.00;;
1987;SDS011;12775;46.994;15.498;2023-04-25T02:05:21;2.40;;;2.10;;
1987;SDS011;12775;46.994;15.498;2023-04-25T02:07:48;2.56;;;2.22;;
1987;SDS011;12775;46.994;15.498;2023-04-25T02:10:15;3.22;;;2.26;;
1987;SDS011;12775;46.994;15.498;2023-04-25T02:12:42;2.06;;;1.94;;
1987;SDS011;12775;46.994;15.498;2023-04-25T02:15:09;2.28;;;2.06;;
1987;SDS011;12775;46.994;15.498;2023-04-25T02:17:37;3.40;;;2.64;;
1987;SDS011;12775;46.994;15.498;2023-04-25T02:20:04;3.06;;;2.80;;
1987;SDS011;12775;46.994;15.498;2023-04-25T02:22:32;2.80;;;2.60;;
1987;SDS011;12775;46.994;15.498;2023-04-25T02:25:00;2.40;;;2.20;;
1987;SDS011;12775;46.994;15.498;2023-04-25T02:27:27;4.46;;;1.80;;
1987;SDS011;12775;46.994;15.498;2023-04-25T02:29:54;4.22;;;2.40;;
1987;SDS011;12775;46.994;15.498;2023-04-25T02:32:22;4.40;;;2.88;;
1987;SDS011;12775;46.994;15.498;2023-04-25T02:34:49;2.16;;;1.86;;
1987;SDS011;12775;46.994;15.498;2023-04-25T02:37:17;4.68;;;3.42;;
1987;SDS011;12775;46.994;15.498;2023-04-25T02:39:44;4.40;;;4.00;;
1987;SDS011;12775;46.994;15.498;2023-04-25T02:42:11;3.22;;;3.02;;
1987;SDS011;12775;46.994;15.498;2023-04-25T02:44:40;10.08;;;5.10;;
1987;SDS011;12775;46.994;15.498;2023-04-25T02:47:07;11.98;;;4.62;;
1987;SDS011;12775;46.994;15.498;2023-04-25T02:49:34;5.44;;;3.58;;
1987;SDS011;12775;46.994;15.498;2023-04-25T02:52:02;7.38;;;4.24;;
1987;SDS011;12775;46.994;15.498;2023-04-25T02:54:28;14.84;;;5.40;;
1987;SDS011;12775;46.994;15.498;2023-04-25T02:56:56;24.34;;;5.62;;
1987;SDS011;12775;46.994;15.498;2023-04-25T02:59:23;11.68;;;4.12;;
1987;SDS011;12775;46.994;15.498;2023-04-25T03:01:50;24.54;;;5.56;;
1987;SDS011;12775;46.994;15.498;2023-04-25T03:04:18;62.44;;;7.90;;
1987;SDS011;12775;46.994;15.498;2023-04-25T03:06:46;46.00;;;6.46;;
1987;SDS011;12775;46.994;15.498;2023-04-25T03:09:13;10.62;;;6.02;;
1987;SDS011;12775;46.994;15.498;2023-04-25T03:11:40;17.80;;;6.60;;
1987;SDS011;12775;46.994;15.498;2023-04-25T03:14:08;24.56;;;5.32;;
1987;SDS011;12775;46.994;15.498;2023-04-25T03:16:35;53.20;;;7.60;;
1987;SDS011;12775;46.994;15.498;2023-04-25T03:19:03;18.96;;;5.26;;
1987;SDS011;12775;46.994;15.498;2023-04-25T03:21:30;18.62;;;4.74;;
1987;SDS011;12775;46.994;15.498;2023-04-25T03:23:58;28.10;;;6.54;;
1987;SDS011;12775;46.994;15.498;2023-04-25T03:26:24;14.46;;;5.40;;
1987;SDS011;12775;46.994;15.498;2023-04-25T03:28:50;13.54;;;4.70;;
1987;SDS011;12775;46.994;15.498;2023-04-25T03:31:18;22.74;;;5.60;;
1987;SDS011;12775;46.994;15.498;2023-04-25T03:33:46;22.94;;;6.42;;
1987;SDS011;12775;46.994;15.498;2023-04-25T03:36:14;45.66;;;6.94;;
1987;SDS011;12775;46.994;15.498;2023-04-25T03:38:42;49.54;;;7.72;;
1987;SDS011;12775;46.994;15.498;2023-04-25T03:41:09;49.70;;;7.74;;
1987;SDS011;12775;46.994;15.498;2023-04-25T03:43:37;31.72;;;6.48;;
1987;SDS011;12775;46.994;15.498;2023-04-25T03:46:04;68.94;;;9.48;;
1987;SDS011;12775;46.994;15.498;2023-04-25T03:48:31;70.06;;;8.74;;
1987;SDS011;12775;46.994;15.498;2023-04-25T03:50:59;39.02;;;7.18;;
1987;SDS011;12775;46.994;15.498;2023-04-25T03:53:27;85.28;;;8.50;;
1987;SDS011;12775;46.994;15.498;2023-04-25T03:55:54;38.98;;;6.16;;
1987;SDS011;12775;46.994;15.498;2023-04-25T03:58:22;30.44;;;4.52;;
1987;SDS011;12775;46.994;15.498;2023-04-25T04:00:49;47.66;;;5.38;;
1987;SDS011;12775;46.994;15.498;2023-04-25T04:03:18;30.22;;;5.70;;
1987;SDS011;12775;46.994;15.498;2023-04-25T04:05:45;44.14;;;6.30;;
1987;SDS011;12775;46.994;15.498;2023-04-25T04:08:12;43.10;;;6.28;;
1987;SDS011;12775;46.994;15.498;2023-04-25T04:10:39;31.26;;;5.82;;
1987;SDS011;12775;46.994;15.498;2023-04-25T04:13:08;29.68;;;5.64;;
1987;SDS011;12775;46.994;15.498;2023-04-25T04:15:35;27.54;;;5.16;;
1987;SDS011;12775;46.994;15.498;2023-04-25T04:18:03;26.82;;;5.76;;
1987;SDS011;12775;46.994;15.498;2023-04-25T04:20:30;28.58;;;6.06;;
1987;SDS011;12775;46.994;15.498;2023-04-25T04:22:58;20.74;;;6.04;;
1987;SDS011;12775;46.994;15.498;2023-04-25T04:25:26;23.56;;;5.16;;
1987;SDS011;12775;46.994;15.498;2023-04-25T04:27:54;14.68;;;4.64;;
1987;SDS011;12775;46.994;15.498;2023-04-25T04:30:22;43.74;;;5.96;;
1987;SDS011;12775;46.994;15.498;2023-04-25T04:32:48;20.02;;;5.54;;
1987;SDS011;12775;46.994;15.498;2023-04-25T04:35:17;9.46;;;4.72;;
1987;SDS011;12775;46.994;15.498;2023-04-25T04:37:44;24.46;;;4.90;;
1987;SDS011;12775;46.994;15.498;2023-04-25T04:40:11;16.70;;;4.52;;
1987;SDS011;12775;46.994;15.498;2023-04-25T04:42:39;14.68;;;4.56;;
1987;SDS011;12775;46.994;15.498;2023-04-25T04:45:06;6.80;;;4.84;;
1987;SDS011;12775;46.994;15.498;2023-04-25T04:47:34;12.14;;;4.20;;
1987;SDS011;12775;46.994;15.498;2023-04-25T04:50:01;13.42;;;4.38;;
1987;SDS011;12775;46.994;15.498;2023-04-25T04:52:29;14.90;;;4.18;;
1987;SDS011;12775;46.994;15.498;2023-04-25T04:54:56;12.72;;;3.98;;
1987;SDS011;12775;46.994;15.498;2023-04-25T04:57:23;11.08;;;4.34;;
1987;SDS011;12775;46.994;15.498;2023-04-25T04:59:50;13.98;;;4.64;;
1987;SDS011;12775;46.994;15.498;2023-04-25T05:02:17;6.02;;;4.82;;
1987;SDS011;12775;46.994;15.498;2023-04-25T05:04:44;11.12;;;4.32;;
1987;SDS011;12775;46.994;15.498;2023-04-25T05:07:11;4.06;;;3.60;;
1987;SDS011;12775;46.994;15.498;2023-04-25T05:09:39;6.48;;;3.70;;
1987;SDS011;12775;46.994;15.498;2023-04-25T05:12:06;4.88;;;4.04;;
1987;SDS011;12775;46.994;15.498;2023-04-25T05:14:34;8.86;;;4.66;;
1987;SDS011;12775;46.994;15.498;2023-04-25T05:17:01;5.60;;;4.40;;
1987;SDS011;12775;46.994;15.498;2023-04-25T05:19:28;4.56;;;3.88;;
1987;SDS011;12775;46.994;15.498;2023-04-25T05:21:56;7.18;;;4.56;;
1987;SDS011;12775;46.994;15.498;2023-04-25T05:24:22;5.80;;;4.10;;
1987;SDS011;12775;46.994;15.498;2023-04-25T05:26:50;30.72;;;6.10;;
1987;SDS011;12775;46.994;15.498;2023-04-25T05:29:17;6.64;;;4.50;;
1987;SDS011;12775;46.994;15.498;2023-04-25T05:31:46;5.92;;;4.42;;
1987;SDS011;12775;46.994;15.498;2023-04-25T05:34:13;9.58;;;4.24;;
1987;SDS011;12775;46.994;15.498;2023-04-25T05:36:41;4.60;;;4.16;;
1987;SDS011;12775;46.994;15.498;2023-04-25T05:39:08;4.32;;;3.92;;
1987;SDS011;12775;46.994;15.498;2023-04-25T05:41:35;5.50;;;5.08;;
1987;SDS011;12775;46.994;15.498;2023-04-25T05:44:03;4.98;;;4.48;;
1987;SDS011;12775;46.994;15.498;2023-04-25T05:46:32;5.20;;;4.80;;
1987;SDS011;12775;46.994;15.498;2023-04-25T05:49:00;4.46;;;4.10;;
1987;SDS011;12775;46.994;15.498;2023-04-25T05:51:28;4.12;;;3.72;;
1987;SDS011;12775;46.994;15.498;2023-04-25T05:53:56;5.20;;;4.70;;
1987;SDS011;12775;46.994;15.498;2023-04-25T05:56:23;5.50;;;4.56;;
1987;SDS011;12775;46.994;15.498;2023-04-25T05:58:51;5.18;;;4.58;;
1987;SDS011;12775;46.994;15.498;2023-04-25T06:01:18;4.36;;;3.96;;
1987;SDS011;12775;46.994;15.498;2023-04-25T06:03:45;5.34;;;4.82;;
1987;SDS011;12775;46.994;15.498;2023-04-25T06:06:12;4.50;;;4.10;;
1987;SDS011;12775;46.994;15.498;2023-04-25T06:08:39;4.02;;;3.62;;
1987;SDS011;12775;46.994;15.498;2023-04-25T06:11:06;5.20;;;4.34;;
1987;SDS011;12775;46.994;15.498;2023-04-25T06:13:34;4.02;;;3.68;;
1987;SDS011;12775;46.994;15.498;2023-04-25T06:16:01;4.16;;;3.86;;
1987;SDS011;12775;46.994;15.498;2023-04-25T06:18:29;5.18;;;4.68;;
1987;SDS011;12775;46.994;15.498;2023-04-25T06:20:58;4.24;;;3.90;;
1987;SDS011;12775;46.994;15.498;2023-04-25T06:23:25;3.86;;;3.56;;
1987;SDS011;12775;46.994;15.498;2023-04-25T06:25:53;4.64;;;4.20;;
1987;SDS011;12775;46.994;15.498;2023-04-25T06:28:20;3.90;;;3.60;;
1987;SDS011;12775;46.994;15.498;2023-04-25T06:30:48;4.36;;;4.06;;
1987;SDS011;12775;46.994;15.498;2023-04-25T06:33:15;4.38;;;3.90;;
1987;SDS011;12775;46.994;15.498;2023-04-25T06:35:42;8.26;;;4.06;;
1987;SDS011;12775;46.994;15.498;2023-04-25T06:38:08;4.34;;;4.08;;
1987;SDS011;12775;46.994;15.498;2023-04-25T06:40:35;4.10;;;3.80;;
1987;SDS011;12775;46.994;15.498;2023-04-25T06:43:02;3.48;;;3.22;;
1987;SDS011;12775;46.994;15.498;2023-04-25T06:45:30;3.78;;;3.48;;
1987;SDS011;12775;46.994;15.498;2023-04-25T06:47:58;3.66;;;3.36;;
1987;SDS011;12775;46.994;15.498;2023-04-25T06:50:25;3.40;;;3.10;;
1987;SDS011;12775;46.994;15.498;2023-04-25T06:52:53;4.16;;;3.86;;
1987;SDS011;12775;46.994;15.498;2023-04-25T06:55:20;3.92;;;3.62;;
1987;SDS011;12775;46.994;15.498;2023-04-25T06:57:49;4.20;;;3.90;;
1987;SDS011;12775;46.994;15.498;2023-04-25T07:00:17;3.86;;;2.70;;
1987;SDS011;12775;46.994;15.498;2023-04-25T07:02:45;3.04;;;2.80;;
1987;SDS011;12775;46.994;15.498;2023-04-25T07:05:12;2.72;;;2.54;;
1987;SDS011;12775;46.994;15.498;2023-04-25T07:07:39;4.24;;;2.54;;
1987;SDS011;12775;46.994;15.498;2023-04-25T07:10:07;3.40;;;2.94;;
1987;SDS011;12775;46.994;15.498;2023-04-25T07:12:34;2.50;;;2.30;;
1987;SDS011;12775;46.994;15.498;2023-04-25T07:15:01;4.76;;;3.00;;
1987;SDS011;12775;46.994;15.498;2023-04-25T07:17:28;2.92;;;2.50;;
1987;SDS011;12775;46.994;15.498;2023-04-25T07:19:56;2.36;;;2.10;;
1987;SDS011;12775;46.994;15.498;2023-04-25T07:22:23;2.50;;;2.24;;
1987;SDS011;12775;46.994;15.498;2023-04-25T07:24:50;1.68;;;1.58;;
1987;SDS011;12775;46.994;15.498;2023-04-25T07:27:18;2.94;;;2.34;;
1987;SDS011;12775;46.994;15.498;2023-04-25T07:29:46;2.98;;;1.72;;
1987;SDS011;12775;46.994;15.498;2023-04-25T07:32:13;1.66;;;1.56;;
1987;SDS011;12775;46.994;15.498;2023-04-25T07:34:40;1.64;;;1.38;;
1987;SDS011;12775;46.994;15.498;2023-04-25T07:37:08;1.90;;;1.70;;
1987;SDS011;12775;46.994;15.498;2023-04-25T07:39:35;1.50;;;1.40;;
1987;SDS011;12775;46.994;15.498;2023-04-25T07:42:02;2.14;;;1.64;;
1987;SDS011;12775;46.994;15.498;2023-04-25T07:44:30;1.78;;;1.42;;
1987;SDS011;12775;46.994;15.498;2023-04-25T07:46:57;2.38;;;1.48;;
1987;SDS011;12775;46.994;15.498;2023-04-25T07:49:25;1.64;;;1.54;;
1987;SDS011;12775;46.994;15.498;2023-04-25T07:51:54;2.58;;;1.60;;
1987;SDS011;12775;46.994;15.498;2023-04-25T07:54:21;1.30;;;1.20;;
1987;SDS011;12775;46.994;15.498;2023-04-25T07:56:49;2.32;;;1.28;;
1987;SDS011;12775;46.994;15.498;2023-04-25T07:59:17;2.58;;;1.96;;
1987;SDS011;12775;46.994;15.498;2023-04-25T08:01:44;2.30;;;1.48;;
1987;SDS011;12775;46.994;15.498;2023-04-25T08:04:13;2.56;;;1.72;;
1987;SDS011;12775;46.994;15.498;2023-04-25T08:06:42;2.48;;;1.52;;
1987;SDS011;12775;46.994;15.498;2023-04-25T08:09:10;1.32;;;1.22;;
1987;SDS011;12775;46.994;15.498;2023-04-25T08:11:37;1.54;;;1.16;;
1987;SDS011;12775;46.994;15.498;2023-04-25T08:14:05;2.68;;;1.32;;
1987;SDS011;12775;46.994;15.498;2023-04-25T08:16:33;1.16;;;1.04;;
1987;SDS011;12775;46.994;15.498;2023-04-25T08:18:59;3.72;;;0.90;;
1987;SDS011;12775;46.994;15.498;2023-04-25T08:21:27;2.08;;;1.20;;
1987;SDS011;12775;46.994;15.498;2023-04-25T08:23:54;1.80;;;1.10;;
1987;SDS011;12775;46.994;15.498;2023-04-25T08:26:21;4.10;;;1.46;;
1987;SDS011;12775;46.994;15.498;2023-04-25T08:28:49;0.92;;;0.90;;
1987;SDS011;12775;46.994;15.498;2023-04-25T08:31:16;1.66;;;1.56;;
1987;SDS011;12775;46.994;15.498;2023-04-25T08:33:43;2.76;;;1.18;;
1987;SDS011;12775;46.994;15.498;2023-04-25T08:36:09;1.72;;;1.30;;
1987;SDS011;12775;46.994;15.498;2023-04-25T08:38:36;1.20;;;1.02;;
1987;SDS011;12775;46.994;15.498;2023-04-25T08:41:03;1.56;;;1.16;;
1987;SDS011;12775;46.994;15.498;2023-04-25T08:43:31;3.72;;;0.88;;
1987;SDS011;12775;46.994;15.498;2023-04-25T08:45:59;1.94;;;1.02;;
1987;SDS011;12775;46.994;15.498;2023-04-25T08:48:27;1.90;;;1.20;;
1987;SDS011;12775;46.994;15.498;2023-04-25T08:50:55;1.12;;;1.02;;
1987;SDS011;12775;46.994;15.498;2023-04-25T08:53:25;1.34;;;1.16;;
1987;SDS011;12775;46.994;15.498;2023-04-25T08:55:54;1.36;;;1.14;;
1987;SDS011;12775;46.994;15.498;2023-04-25T08:58:22;5.76;;;1.22;;
1987;SDS011;12775;46.994;15.498;2023-04-25T09:00:51;1.26;;;1.04;;
1987;SDS011;12775;46.994;15.498;2023-04-25T09:03:17;1.78;;;1.40;;
1987;SDS011;12775;46.994;15.498;2023-04-25T09:05:46;1.72;;;0.90;;
1987;SDS011;12775;46.994;15.498;2023-04-25T09:08:13;1.46;;;1.28;;
1987;SDS011;12775;46.994;15.498;2023-04-25T09:10:40;1.12;;;1.02;;
1987;SDS011;12775;46.994;15.498;2023-04-25T09:13:11;1.46;;;1.14;;
1987;SDS011;12775;46.994;15.498;2023-04-25T09:18:12;1.78;;;1.00;;
1987;SDS011;12775;46.994;15.498;2023-04-25T09:20:42;1.52;;;1.20;;
1987;SDS011;12775;46.994;15.498;2023-04-25T09:23:09;2.24;;;1.38;;
1987;SDS011;12775;46.994;15.498;2023-04-25T09:25:36;1.30;;;1.20;;
1987;SDS011;12775;46.994;15.498;2023-04-25T09:28:04;3.62;;;1.28;;
1987;SDS011;12775;46.994;15.498;2023-04-25T09:30:31;1.80;;;1.10;;
1987;SDS011;12775;46.994;15.498;2023-04-25T09:33:03;2.38;;;1.14;;
1987;SDS011;12775;46.994;15.498;2023-04-25T09:35:25;2.06;;;1.38;;
1987;SDS011;12775;46.994;15.498;2023-04-25T09:37:52;4.10;;;1.50;;
1987;SDS011;12775;46.994;15.498;2023-04-25T09:40:20;1.38;;;1.28;;
1987;SDS011;12775;46.994;15.498;2023-04-25T09:42:48;1.14;;;1.04;;
1987;SDS011;12775;46.994;15.498;2023-04-25T09:45:15;1.68;;;1.22;;
1987;SDS011;12775;46.994;15.498;2023-04-25T09:47:43;1.04;;;0.94;;
1987;SDS011;12775;46.994;15.498;2023-04-25T09:50:15;4.06;;;1.22;;
1987;SDS011;12775;46.994;15.498;2023-04-25T09:52:41;1.40;;;1.12;;
1987;SDS011;12775;46.994;15.498;2023-04-25T09:55:09;2.02;;;1.36;;
1987;SDS011;12775;46.994;15.498;2023-04-25T09:57:36;1.16;;;1.06;;
1987;SDS011;12775;46.994;15.498;2023-04-25T10:00:05;1.44;;;1.10;;
1987;SDS011;12775;46.994;15.498;2023-04-25T10:02:33;1.36;;;1.10;;
1987;SDS011;12775;46.994;15.498;2023-04-25T10:05:01;1.62;;;1.22;;
1987;SDS011;12775;46.994;15.498;2023-04-25T10:07:30;2.18;;;1.08;;
1987;SDS011;12775;46.994;15.498;2023-04-25T10:10:00;1.14;;;0.98;;
1987;SDS011;12775;46.994;15.498;2023-04-25T10:12:27;1.64;;;1.08;;
1987;SDS011;12775;46.994;15.498;2023-04-25T10:14:54;2.48;;;1.28;;
1987;SDS011;12775;46.994;15.498;2023-04-25T10:17:20;1.66;;;1.48;;
1987;SDS011;12775;46.994;15.498;2023-04-25T10:19:48;1.76;;;1.02;;
1987;SDS011;12775;46.994;15.498;2023-04-25T10:22:18;2.10;;;1.20;;
1987;SDS011;12775;46.994;15.498;2023-04-25T10:24:46;1.94;;;1.02;;
1987;SDS011;12775;46.994;15.498;2023-04-25T10:27:13;1.74;;;1.64;;
1987;SDS011;12775;46.994;15.498;2023-04-25T10:29:41;1.18;;;1.08;;
1987;SDS011;12775;46.994;15.498;2023-04-25T10:32:08;1.98;;;1.34;;
1987;SDS011;12775;46.994;15.498;2023-04-25T10:34:38;2.12;;;1.38;;
1987;SDS011;12775;46.994;15.498;2023-04-25T10:37:10;1.44;;;1.20;;
1987;SDS011;12775;46.994;15.498;2023-04-25T10:39:37;0.92;;;0.92;;
1987;SDS011;12775;46.994;15.498;2023-04-25T10:42:04;1.78;;;1.06;;
1987;SDS011;12775;46.994;15.498;2023-04-25T10:44:31;0.82;;;0.70;;
1987;SDS011;12775;46.994;15.498;2023-04-25T10:46:59;1.96;;;1.20;;
1987;SDS011;12775;46.994;15.498;2023-04-25T10:49:29;2.46;;;1.12;;
1987;SDS011;12775;46.994;15.498;2023-04-25T10:54:39;0.80;;;0.70;;
1987;SDS011;12775;46.994;15.498;2023-04-25T10:57:03;1.46;;;1.26;;
1987;SDS011;12775;46.994;15.498;2023-04-25T10:59:30;2.24;;;0.98;;
1987;SDS011;12775;46.994;15.498;2023-04-25T11:01:57;0.88;;;0.74;;
1987;SDS011;12775;46.994;15.498;2023-04-25T11:04:32;1.62;;;1.18;;
1987;SDS011;12775;46.994;15.498;2023-04-25T11:07:19;1.08;;;0.98;;
1987;SDS011;12775;46.994;15.498;2023-04-25T11:09:43;1.54;;;1.00;;
1987;SDS011;12775;46.994;15.498;2023-04-25T11:12:11;1.44;;;0.80;;
1987;SDS011;12775;46.994;15.498;2023-04-25T11:14:37;2.30;;;1.18;;
1987;SDS011;12775;46.994;15.498;2023-04-25T11:17:05;1.34;;;1.10;;
1987;SDS011;12775;46.994;15.498;2023-04-25T11:19:32;1.38;;;1.20;;
1987;SDS011;12775;46.994;15.498;2023-04-25T11:22:00;1.42;;;1.30;;
1987;SDS011;12775;46.994;15.498;2023-04-25T11:24:27;1.18;;;1.08;;
1987;SDS011;12775;46.994;15.498;2023-04-25T11:26:57;1.26;;;1.16;;
1987;SDS011;12775;46.994;15.498;2023-04-25T11:29:26;1.66;;;1.48;;
1987;SDS011;12775;46.994;15.498;2023-04-25T11:31:54;4.50;;;1.08;;
1987;SDS011;12775;46.994;15.498;2023-04-25T11:34:21;2.44;;;1.30;;
1987;SDS011;12775;46.994;15.498;2023-04-25T11:36:48;2.24;;;1.82;;
1987;SDS011;12775;46.994;15.498;2023-04-25T11:39:16;3.92;;;1.14;;
1987;SDS011;12775;46.994;15.498;2023-04-25T11:41:43;1.16;;;0.90;;
1987;SDS011;12775;46.994;15.498;2023-04-25T11:44:10;1.58;;;1.18;;
1987;SDS011;12775;46.994;15.498;2023-04-25T11:46:38;1.20;;;1.10;;
1987;SDS011;12775;46.994;15.498;2023-04-25T11:49:05;1.42;;;1.12;;
1987;SDS011;12775;46.994;15.498;2023-04-25T11:51:37;1.82;;;1.02;;
1987;SDS011;12775;46.994;15.498;2023-04-25T11:54:06;1.46;;;1.06;;
1987;SDS011;12775;46.994;15.498;2023-04-25T11:56:33;2.12;;;1.24;;
1987;SDS011;12775;46.994;15.498;2023-04-25T11:59:04;1.68;;;1.16;;
1987;SDS011;12775;46.994;15.498;2023-04-25T12:01:33;1.52;;;0.98;;
1987;SDS011;12775;46.994;15.498;2023-04-25T12:06:37;1.40;;;1.18;;
1987;SDS011;12775;46.994;15.498;2023-04-25T12:09:04;2.84;;;1.42;;
1987;SDS011;12775;46.994;15.498;2023-04-25T12:11:31;5.80;;;1.92;;
1987;SDS011;12775;46.994;15.498;2023-04-25T12:14:02;5.14;;;1.80;;
1987;SDS011;12775;46.994;15.498;2023-04-25T12:16:39;2.26;;;1.42;;
1987;SDS011;12775;46.994;15.498;2023-04-25T12:18:57;5.64;;;1.40;;
1987;SDS011;12775;46.994;15.498;2023-04-25T12:21:27;1.82;;;1.52;;
1987;SDS011;12775;46.994;15.498;2023-04-25T12:23:53;1.92;;;1.14;;
1987;SDS011;12775;46.994;15.498;2023-04-25T12:26:20;1.30;;;1.00;;
1987;SDS011;12775;46.994;15.498;2023-04-25T12:28:48;2.04;;;1.38;;
1987;SDS011;12775;46.994;15.498;2023-04-25T12:31:15;1.36;;;1.10;;
1987;SDS011;12775;46.994;15.498;2023-04-25T12:33:42;1.46;;;1.10;;
1987;SDS011;12775;46.994;15.498;2023-04-25T12:36:09;2.82;;;1.00;;
1987;SDS011;12775;46.994;15.498;2023-04-25T12:38:38;1.36;;;1.26;;
1987;SDS011;12775;46.994;15.498;2023-04-25T12:41:05;2.12;;;1.38;;
1987;SDS011;12775;46.994;15.498;2023-04-25T12:43:32;1.24;;;1.10;;
1987;SDS011;12775;46.994;15.498;2023-04-25T12:45:59;2.92;;;1.38;;
1987;SDS011;12775;46.994;15.498;2023-04-25T12:48:27;1.40;;;1.00;;
1987;SDS011;12775;46.994;15.498;2023-04-25T12:50:53;1.18;;;1.08;;
1987;SDS011;12775;46.994;15.498;2023-04-25T12:53:21;1.22;;;1.06;;
1987;SDS011;12775;46.994;15.498;2023-04-25T12:55:48;3.00;;;1.10;;
1987;SDS011;12775;46.994;15.498;2023-04-25T12:58:15;1.90;;;1.80;;
1987;SDS011;12775;46.994;15.498;2023-04-25T13:00:41;8.60;;;1.52;;
1987;SDS011;12775;46.994;15.498;2023-04-25T13:03:08;1.52;;;1.42;;
1987;SDS011;12775;46.994;15.498;2023-04-25T13:05:35;1.70;;;0.88;;
1987;SDS011;12775;46.994;15.498;2023-04-25T13:08:02;1.50;;;0.86;;
1987;SDS011;12775;46.994;15.498;2023-04-25T13:10:30;1.34;;;1.10;;
1987;SDS011;12775;46.994;15.498;2023-04-25T13:12:57;4.32;;;1.00;;
1987;SDS011;12775;46.994;15.498;2023-04-25T13:15:24;1.50;;;0.96;;
1987;SDS011;12775;46.994;15.498;2023-04-25T13:17:52;1.90;;;1.16;;
1987;SDS011;12775;46.994;15.498;2023-04-25T13:20:19;2.42;;;1.02;;
1987;SDS011;12775;46.994;15.498;2023-04-25T13:22:46;1.52;;;0.60;;
1987;SDS011;12775;46.994;15.498;2023-04-25T13:25:14;1.26;;;0.90;;
1987;SDS011;12775;46.994;15.498;2023-04-25T13:27:40;1.84;;;1.10;;
1987;SDS011;12775;46.994;15.498;2023-04-25T13:30:08;1.56;;;0.80;;
1987;SDS011;12775;46.994;15.498;2023-04-25T13:32:37;2.66;;;1.60;;
1987;SDS011;12775;46.994;15.498;2023-04-25T13:35:05;2.86;;;1.16;;
1987;SDS011;12775;46.994;15.498;2023-04-25T13:37:31;0.70;;;0.70;;
1987;SDS011;12775;46.994;15.498;2023-04-25T13:40:00;1.24;;;1.14;;
1987;SDS011;12775;46.994;15.498;2023-04-25T13:42:26;1.42;;;0.72;;
1987;SDS011;12775;46.994;15.498;2023-04-25T13:44:53;1.70;;;1.30;;
1987;SDS011;12775;46.994;15.498;2023-04-25T13:47:20;0.86;;;0.78;;
1987;SDS011;12775;46.994;15.498;2023-04-25T13:49:47;0.98;;;0.86;;
1987;SDS011;12775;46.994;15.498;2023-04-25T13:52:14;0.72;;;0.70;;
1987;SDS011;12775;46.994;15.498;2023-04-25T13:54:42;3.82;;;1.28;;
1987;SDS011;12775;46.994;15.498;2023-04-25T13:57:09;1.00;;;0.80;;
1987;SDS011;12775;46.994;15.498;2023-04-25T13:59:37;2.60;;;0.94;;
1987;SDS011;12775;46.994;15.498;2023-04-25T14:02:04;1.48;;;1.20;;
1987;SDS011;12775;46.994;15.498;2023-04-25T14:04:31;0.88;;;0.80;;
1987;SDS011;12775;46.994;15.498;2023-04-25T14:06:59;1.28;;;0.96;;
1987;SDS011;12775;46.994;15.498;2023-04-25T14:09:26;1.88;;;1.20;;
1987;SDS011;12775;46.994;15.498;2023-04-25T14:11:54;2.56;;;1.12;;
1987;SDS011;12775;46.994;15.498;2023-04-25T14:14:20;1.60;;;0.94;;
1987;SDS011;12775;46.994;15.498;2023-04-25T14:16:47;1.42;;;1.20;;
1987;SDS011;12775;46.994;15.498;2023-04-25T14:19:15;1.40;;;1.30;;
1987;SDS011;12775;46.994;15.498;2023-04-25T14:21:42;0.98;;;0.88;;
1987;SDS011;12775;46.994;15.498;2023-04-25T14:24:10;1.62;;;1.10;;
1987;SDS011;12775;46.994;15.498;2023-04-25T14:26:38;2.38;;;1.10;;
1987;SDS011;12775;46.994;15.498;2023-04-25T14:29:05;1.60;;;1.12;;
1987;SDS011;12775;46.994;15.498;2023-04-25T14:31:33;1.24;;;1.14;;
1987;SDS011;12775;46.994;15.498;2023-04-25T14:34:01;1.36;;;0.96;;
1987;SDS011;12775;46.994;15.498;2023-04-25T14:36:28;2.70;;;1.32;;
1987;SDS011;12775;46.994;15.498;2023-04-25T14:38:57;2.08;;;1.38;;
1987;SDS011;12775;46.994;15.498;2023-04-25T14:41:25;0.96;;;0.70;;
1987;SDS011;12775;46.994;15.498;2023-04-25T14:43:52;1.00;;;0.90;;
1987;SDS011;12775;46.994;15.498;2023-04-25T14:46:20;1.80;;;0.90;;
1987;SDS011;12775;46.994;15.498;2023-04-25T14:48:47;1.26;;;0.94;;
1987;SDS011;12775;46.994;15.498;2023-04-25T14:51:14;3.60;;;0.90;;
1987;SDS011;12775;46.994;15.498;2023-04-25T14:53:42;1.92;;;1.00;;